Terminal Aerodrome Forecast
Issued by NWS

Home | Current Version | Previous Version | Text Only | Print | Product List | Glossary On
Versions: 1 2 3 4 5 6 7 8 9 10 11 12 13 14 15 16 17 18 19 20 21 22 23 24 25 26 27 28 29 30 31 32 33 34 35 36 37 38 39 40 41 42 43 44 45 46 47 48 49 50
000
FTUS43 KMKX 021127
TAFENW
TAF
KENW 021127Z 0212/0312 26004KT 2SM BR BKN250
      TEMPO 0212/0213 1/2SM FG
     FM021400 25006KT P6SM SCT200
     FM021800 24007KT P6SM SCT040 SCT150
     FM030100 20003KT P6SM SKC
     FM030700 00000KT 3SM BR FEW003
     FM030900 00000KT 1/2SM FG SCT002=

USA.gov is the U.S. government's official web portal to all federal, state and local government web resources and services.